Main page


Airports :

London-Heathrow, England

Heathrow Airport

latitude: 51-29N, longitude: 000-27W, elevation: 24 m

Current weather observation

The report was made 11 minutes ago, at 18:20 UTC
Wind 10 kt from the Northeast, varying between North/Northeast and East
Temperature 2°C
Humidity 51%
Pressure 1018 hPa
Visibility 10 km or more

METAR: EGLL 191820Z AUTO 05010KT 020V080 9999 NCD 02/M07 Q1018 NOSIG

Time: 18:31 (18:31 UTC)


The report was made 1 hour and 37 minutes ago, at 16:54 UTC
Forecast valid from 19 at 18 UTC to 20 at 24 UTC
Wind 12 kt from the Northeast
Visibility 10 km or more
Few clouds at a height of 4500 ft
from 20 at 02 UTC to 20 at 07 UTC
Visibility: 4500 m
Broken clouds at a height of 800 ft
light rain showers, snow
Probability 40% :
from 20 at 07 UTC to 20 at 10 UTC
Broken clouds at a height of 1200 ft
from 20 at 22 UTC to 20 at 24 UTC
Wind 4 kt from the North/Northwest

TAF: EGLL 191654Z 1918/2024 04012KT 9999 FEW045 TEMPO 2002/2007 4500 -SHRASN BKN008 PROB40 TEMPO 2007/2010 BKN012 BECMG 2022/2024 33004KT

Weather observations and forecasts of more than 4000 airports (METAR and TAF reports).

The available stations are represented by yellow and red dots on the map.

Hover mouse over dot to see the name of the station.

Then click to see weather observations and forecasts.

To change the map : click on the green buttons with a black cross to zoom in, on the green button with a dash to zoom out, or on the green arrows for adjacent maps.